createdAt,value
2019-05-10T05:11:29.914Z,999.17
2019-05-10T05:21:29.464Z,999.31
2019-05-10T05:31:29.423Z,999.45
2019-05-10T05:41:31.912Z,999.56
2019-05-10T05:51:29.682Z,999.74
2019-05-10T06:01:29.774Z,999.55
2019-05-10T06:11:29.728Z,999.86
2019-05-10T06:21:29.756Z,999.91
2019-05-10T06:31:29.416Z,999.96
2019-05-10T06:41:32.442Z,1000.07
2019-05-10T06:51:29.668Z,1000.20
2019-05-10T07:01:29.218Z,1000.25
2019-05-10T07:11:29.792Z,1000.24
2019-05-10T07:21:29.688Z,1000.16
2019-05-10T07:31:30.569Z,1000.26
2019-05-10T07:41:29.598Z,1000.27
2019-05-10T07:51:30.362Z,1000.48
2019-05-10T08:01:32.363Z,1000.57
2019-05-10T08:11:29.639Z,1000.60
2019-05-10T08:21:32.041Z,1000.88
2019-05-10T08:31:31.876Z,1001.03
2019-05-10T08:41:29.400Z,1001.11
2019-05-10T08:51:29.676Z,1001.26
2019-05-10T09:01:31.357Z,1001.32
2019-05-10T09:11:29.678Z,1001.56
2019-05-10T09:21:32.031Z,1001.64
2019-05-10T09:31:29.638Z,1001.68
2019-05-10T09:41:35.995Z,1001.75
2019-05-10T09:51:30.975Z,1001.99
2019-05-10T10:01:30.471Z,1002.24
2019-05-10T10:11:29.733Z,1002.42
2019-05-10T10:21:35.157Z,1002.51
2019-05-10T10:31:33.050Z,1002.57
2019-05-10T10:41:31.926Z,1002.72
2019-05-10T10:51:31.974Z,1002.82
2019-05-10T11:01:45.663Z,1002.87
2019-05-10T11:11:38.462Z,1002.98
2019-05-10T11:21:32.899Z,1002.98
2019-05-10T11:31:31.227Z,1003.09
2019-05-10T11:41:31.460Z,1003.10
2019-05-10T11:51:31.528Z,1003.14
2019-05-10T12:01:29.677Z,1003.30
2019-05-10T12:11:33.806Z,1003.55
2019-05-10T12:21:33.125Z,1003.74
2019-05-10T12:31:31.117Z,1003.69
2019-05-10T12:41:31.594Z,1003.71
2019-05-10T12:51:31.251Z,1003.84
2019-05-10T13:01:31.740Z,1003.81
2019-05-10T13:11:32.569Z,1003.91
2019-05-10T13:21:30.611Z,1004.04
2019-05-10T13:31:29.586Z,1004.16
2019-05-10T13:41:29.755Z,1004.28
2019-05-10T13:51:29.404Z,1004.36
2019-05-10T14:01:29.672Z,1004.33
2019-05-10T14:11:34.108Z,1004.43
2019-05-10T14:21:29.711Z,1004.45
2019-05-10T14:31:30.620Z,1004.57
2019-05-10T14:41:29.860Z,1004.61
2019-05-10T14:51:44.086Z,1004.57
2019-05-10T15:01:30.225Z,1004.88
2019-05-10T15:11:33.218Z,1004.79
2019-05-10T15:21:29.844Z,1004.86
2019-05-10T15:31:30.847Z,1005.00
2019-05-10T15:41:29.676Z,1005.07
2019-05-10T15:51:36.095Z,1005.04
2019-05-10T16:01:32.324Z,1005.16
2019-05-10T16:11:29.923Z,1005.37
2019-05-10T16:21:29.871Z,1005.28
2019-05-10T16:31:29.930Z,1005.31
2019-05-10T16:41:29.907Z,1005.33
2019-05-10T16:51:30.312Z,1005.32
2019-05-10T17:01:33.381Z,1005.41
2019-05-10T17:11:29.797Z,1005.49
2019-05-10T17:21:30.155Z,1005.70
2019-05-10T17:31:29.958Z,1005.84
2019-05-10T17:41:30.023Z,1005.87
2019-05-10T17:51:28.746Z,1005.78
2019-05-10T18:01:28.814Z,1005.81
2019-05-10T18:11:29.723Z,1005.94
2019-05-10T18:21:30.394Z,1005.89
2019-05-10T18:31:29.837Z,1005.91
2019-05-10T18:41:29.820Z,1006.08
2019-05-10T18:51:29.683Z,1006.01
2019-05-10T19:01:32.830Z,1006.15
